Time;durP1;ratioP1;P1;durP2;ratioP2;P2;SDS_P1;SDS_P2;PMS_P1;PMS_P2;Temp;Humidity;BMP_temperature;BMP_pressure;BME280_temperature;BME280_humidity;BME280_pressure;Samples;Min_cycle;Max_cycle;Signal;HPM_P1;HPM_P2
2022/08/12 00:43:57;;;;;;;;;30.50;29.00;;;;;26.46;62.01;100001.19;5027432;28;45264;-76
2022/08/12 00:46:35;;;;;;;;;32.00;30.00;;;;;26.04;61.55;99919.19;5022611;28;45479;-76
2022/08/12 00:49:01;;;;;;;;;29.50;26.50;;;;;26.25;60.65;99961.06;5033190;28;45450;-77
2022/08/12 00:52:05;;;;;;;;;27.00;25.75;;;;;26.17;60.82;99952.50;5029727;28;46151;-76
2022/08/12 00:54:15;;;;;;;;;29.25;27.00;;;;;26.43;60.88;99996.88;5021238;28;45469;-76
2022/08/12 00:56:41;;;;;;;;;26.75;23.75;;;;;26.39;60.55;99997.94;5037319;28;45504;-76
2022/08/12 00:59:08;;;;;;;;;24.67;24.67;;;;;26.41;60.55;99990.72;5021049;28;45370;-76
2022/08/12 01:01:35;;;;;;;;;23.33;22.67;;;;;26.47;60.17;99997.59;5030662;28;45486;-76
2022/08/12 01:12:24;;;;;;;;;24.00;22.67;;;;;26.31;58.56;100002.78;5017105;28;45783;-76
2022/08/12 01:14:53;;;;;;;;;25.00;23.67;;;;;26.17;59.84;99988.16;5035999;28;45396;-76
2022/08/12 01:17:21;;;;;;;;;25.67;25.00;;;;;26.18;60.14;100002.41;5022352;28;45396;-76
2022/08/12 01:19:51;;;;;;;;;23.00;23.00;;;;;25.94;60.17;99962.41;5019976;28;45750;-76
2022/08/12 01:22:29;;;;;;;;;24.25;24.25;;;;;26.12;59.90;99991.97;5028783;28;45545;-76
2022/08/12 01:25:17;;;;;;;;;24.00;23.00;;;;;25.89;61.20;99974.22;5030022;28;45549;-76
2022/08/12 01:27:45;;;;;;;;;26.25;26.00;;;;;25.77;62.17;99952.38;5036412;28;45522;-76
2022/08/12 01:30:13;;;;;;;;;27.50;26.00;;;;;25.63;62.16;99946.75;5029297;28;45378;-76
2022/08/12 01:32:40;;;;;;;;;29.00;26.00;;;;;25.43;62.13;99909.25;5029329;28;46095;-76
2022/08/12 01:35:09;;;;;;;;;28.00;27.50;;;;;25.77;62.18;99952.38;5019901;28;45496;-77
2022/08/12 01:37:56;;;;;;;;;27.00;24.00;;;;;25.68;61.54;99931.34;5017118;28;45407;-76
2022/08/12 01:40:31;;;;;;;;;28.50;27.00;;;;;26.00;61.66;99977.31;5027936;28;45496;-87
2022/08/12 01:43:04;;;;;;;;;29.00;26.00;;;;;25.99;61.13;99980.94;5019729;28;45441;-77
2022/08/12 01:45:33;;;;;;;;;25.00;23.67;;;;;25.91;61.00;99975.91;5017111;28;45414;-76
2022/08/12 01:48:11;;;;;;;;;25.67;24.33;;;;;25.84;61.06;99979.75;5026241;28;45579;-77
2022/08/12 01:50:58;;;;;;;;;21.67;21.67;;;;;25.67;60.34;99979.59;5020735;28;45502;-77
2022/08/12 01:53:41;;;;;;;;;20.67;19.00;;;;;25.64;60.87;99963.66;5016638;28;46560;-76
2022/08/12 01:56:09;;;;;;;;;23.33;22.67;;;;;25.29;60.93;99909.84;5016703;28;45291;-76
2022/08/12 02:01:33;;;;;;;;;25.33;22.67;;;;;25.52;61.41;99959.69;5017236;28;45389;-76
2022/08/12 02:13:45;;;;;;;;;21.33;20.33;;;;;25.37;62.67;99958.53;5028720;28;45494;-76
2022/08/12 02:16:30;;;;;;;;;27.50;25.50;;;;;25.13;64.22;99958.53;5019269;28;46154;-77
2022/08/12 02:19:24;;;;;;;;;24.33;22.33;;;;;24.78;64.05;99918.03;5016326;28;45208;-76
2022/08/12 02:22:14;;;;;;;;;27.00;25.00;;;;;25.08;63.15;99954.31;5014729;28;45426;-76
2022/08/12 02:24:43;;;;;;;;;24.00;23.00;;;;;24.98;64.30;99945.78;5016789;28;45372;-76
2022/08/12 02:27:11;;;;;;;;;27.67;25.33;;;;;24.92;64.90;99943.34;5015936;28;45415;-76
2022/08/12 02:29:39;;;;;;;;;22.33;21.33;;;;;24.83;64.91;99933.91;5015966;28;45686;-77
2022/08/12 02:32:06;;;;;;;;;29.00;25.00;;;;;24.83;64.65;99928.56;5032057;28;45338;-76
2022/08/12 02:34:32;;;;;;;;;25.67;23.67;;;;;24.77;64.10;99916.31;5022633;28;45360;-77
2022/08/12 02:37:00;;;;;;;;;23.67;22.67;;;;;24.90;63.90;99939.84;5024834;28;46177;-76
2022/08/12 02:39:28;;;;;;;;;23.67;23.00;;;;;24.90;63.11;99951.41;5015602;28;45461;-76
2022/08/12 02:41:59;;;;;;;;;19.33;18.33;;;;;24.87;62.94;99967.56;5022816;28;45529;-78
2022/08/12 02:44:29;;;;;;;;;22.33;20.33;;;;;24.80;62.78;99950.88;5028345;28;45619;-76
2022/08/12 02:47:00;;;;;;;;;24.00;21.67;;;;;24.61;62.83;99933.81;5023923;28;45688;-76
2022/08/12 02:49:30;;;;;;;;;23.33;22.33;;;;;24.74;62.80;99969.81;5035407;28;45307;-76
2022/08/12 02:51:58;;;;;;;;;22.67;22.00;;;;;24.60;62.84;99937.44;5035106;28;45453;-76
2022/08/12 02:54:25;;;;;;;;;23.75;23.50;;;;;24.67;63.03;99954.09;5034399;28;45359;-76
2022/08/12 02:56:51;;;;;;;;;22.67;22.67;;;;;24.03;62.91;99846.06;5019160;28;45618;-76
2022/08/12 02:59:20;;;;;;;;;21.33;20.67;;;;;24.42;63.36;99934.47;5032213;28;45758;-77
2022/08/12 03:01:48;;;;;;;;;20.75;20.25;;;;;24.47;64.04;99946.78;5025705;28;45504;-76
2022/08/12 03:04:23;;;;;;;;;22.75;20.75;;;;;24.38;63.52;99954.22;5024718;28;45694;-76
2022/08/12 03:07:08;;;;;;;;;20.67;19.67;;;;;24.10;64.08;99902.78;5038601;28;45959;-76
2022/08/12 03:09:44;;;;;;;;;24.50;22.25;;;;;24.20;64.78;99931.72;5038268;28;45746;-75
2022/08/12 03:12:11;;;;;;;;;25.50;23.25;;;;;24.00;65.90;99911.09;5032206;28;45350;-75
2022/08/12 03:14:41;;;;;;;;;27.50;24.75;;;;;23.50;67.79;99849.72;5029375;28;45813;-75
2022/08/12 03:17:16;;;;;;;;;28.25;26.75;;;;;23.94;67.09;99931.78;5023470;28;45970;-76
2022/08/12 03:19:44;;;;;;;;;24.67;23.00;;;;;23.97;66.06;99929.00;5018818;28;45643;-76
2022/08/12 03:22:14;;;;;;;;;27.00;25.75;;;;;24.02;66.34;99925.25;5019247;28;45505;-77
2022/08/12 03:24:42;;;;;;;;;27.50;27.50;;;;;24.07;67.71;99937.56;5019242;28;45456;-76
2022/08/12 03:27:09;;;;;;;;;33.75;29.25;;;;;23.97;67.51;99929.00;5019143;28;46236;-76
2022/08/12 03:29:37;;;;;;;;;30.00;27.75;;;;;23.93;67.95;99936.22;5019077;28;45437;-76
2022/08/12 03:32:03;;;;;;;;;25.25;24.75;;;;;23.92;67.56;99938.97;5019354;28;45503;-76
2022/08/12 03:34:34;;;;;;;;;27.50;26.75;;;;;23.80;68.55;99924.28;5019533;28;45283;-76
2022/08/12 03:37:02;;;;;;;;;30.00;29.00;;;;;23.80;67.59;99927.81;5019169;28;45729;-76
2022/08/12 03:42:32;;;;;;;;;28.00;26.75;;;;;23.82;67.86;99938.44;5019253;28;45173;-76
2022/08/12 04:01:57;;;;;;;;;24.00;23.25;;;;;23.62;65.67;99931.06;5027976;28;45505;-76
2022/08/12 04:04:33;;;;;;;;;25.75;22.75;;;;;23.20;65.77;99870.28;5023332;28;45332;-76
2022/08/12 04:07:06;;;;;;;;;23.00;20.25;;;;;23.61;65.98;99946.16;5022420;28;45508;-76
2022/08/12 04:09:34;;;;;;;;;25.50;23.25;;;;;23.65;66.56;99940.75;5037259;28;45572;-76
2022/08/12 04:14:43;;;;;;;;;28.25;26.25;;;;;23.63;66.96;99943.47;5033763;28;45412;-76
2022/08/12 04:17:11;;;;;;;;;27.50;25.50;;;;;23.47;66.29;99908.44;5025038;28;45151;-76
2022/08/12 04:19:37;;;;;;;;;24.25;23.75;;;;;23.59;66.31;99905.34;5026002;28;45569;-77
2022/08/12 04:22:03;;;;;;;;;27.50;26.25;;;;;23.54;66.78;99901.13;5032682;28;45585;-76
2022/08/12 04:24:30;;;;;;;;;26.75;25.25;;;;;23.58;66.63;99927.63;5033869;28;45461;-76
2022/08/12 04:26:56;;;;;;;;;23.00;20.50;;;;;23.50;66.15;99896.84;5024891;28;45577;-76
2022/08/12 04:29:22;;;;;;;;;21.67;20.67;;;;;23.84;65.14;99933.91;5026527;28;45586;-76
2022/08/12 04:31:48;;;;;;;;;22.33;21.00;;;;;23.98;64.74;99950.28;5018074;28;45504;-76
2022/08/12 04:34:15;;;;;;;;;25.00;24.75;;;;;24.12;65.34;99951.63;5030606;28;45342;-76
2022/08/12 04:36:42;;;;;;;;;25.50;24.25;;;;;24.15;65.55;99959.50;5017868;28;45461;-76
2022/08/12 04:39:09;;;;;;;;;24.67;23.67;;;;;24.09;64.54;99943.72;5030904;28;45991;-76
2022/08/12 04:41:36;;;;;;;;;21.67;21.67;;;;;24.22;64.49;99961.91;5026191;28;45583;-76
2022/08/12 04:44:03;;;;;;;;;21.75;20.50;;;;;24.18;64.33;99954.06;5017180;28;45535;-76
2022/08/12 04:46:28;;;;;;;;;27.00;22.33;;;;;24.02;64.45;99935.91;5017296;28;45420;-76
2022/08/12 04:48:54;;;;;;;;;22.33;20.33;;;;;24.18;64.50;99964.75;5017495;28;45599;-76
2022/08/12 04:51:22;;;;;;;;;20.25;19.75;;;;;24.14;64.25;99955.09;5026550;28;45492;-76
2022/08/12 04:53:48;;;;;;;;;21.25;20.00;;;;;24.14;63.72;99958.63;5028422;28;45605;-76
2022/08/12 04:56:15;;;;;;;;;22.33;21.67;;;;;24.14;64.00;99955.09;5028713;28;45571;-77
2022/08/12 04:58:41;;;;;;;;;23.00;21.50;;;;;24.17;64.17;99971.00;5029458;28;45544;-76
2022/08/12 05:01:08;;;;;;;;;23.75;22.00;;;;;24.12;63.80;99962.28;5036207;28;45460;-76
2022/08/12 05:03:40;;;;;;;;;24.50;22.25;;;;;24.21;64.22;99989.53;5024054;28;45366;-76
2022/08/12 05:06:07;;;;;;;;;24.25;21.50;;;;;24.21;64.42;99991.31;5026310;28;45331;-76
2022/08/12 05:08:34;;;;;;;;;23.75;21.25;;;;;24.24;63.75;99996.53;5023450;28;45963;-76
2022/08/12 05:11:00;;;;;;;;;23.00;20.50;;;;;24.02;64.16;99962.59;5016942;28;45500;-76
2022/08/12 05:13:33;;;;;;;;;24.50;23.00;;;;;24.24;63.83;99993.00;5021978;28;45586;-76
2022/08/12 05:15:59;;;;;;;;;26.67;26.00;;;;;23.93;64.09;99946.91;5036195;28;45346;-77
2022/08/12 05:18:26;;;;;;;;;24.00;21.67;;;;;24.03;64.25;99963.47;5022575;28;46165;-76
2022/08/12 05:20:52;;;;;;;;;24.67;23.00;;;;;24.12;64.52;99959.63;5032424;28;45555;-76
2022/08/12 05:23:19;;;;;;;;;23.50;22.25;;;;;24.32;65.05;100005.16;5022599;28;45326;-76
2022/08/12 05:25:47;;;;;;;;;25.25;23.00;;;;;24.29;65.17;100009.72;5035311;28;45407;-75
2022/08/12 05:28:15;;;;;;;;;22.67;22.00;;;;;24.31;65.03;100011.44;5034469;28;45628;-76
2022/08/12 05:30:43;;;;;;;;;27.00;25.33;;;;;24.36;65.18;100005.91;5026377;28;45588;-76
2022/08/12 05:33:09;;;;;;;;;23.00;20.67;;;;;23.91;63.75;99919.41;5022164;28;45359;-76
2022/08/12 05:35:38;;;;;;;;;24.00;23.00;;;;;24.32;65.20;100014.97;5034767;28;45382;-76
2022/08/12 05:40:50;;;;;;;;;22.50;22.00;;;;;24.29;65.11;100023.06;5016189;28;45389;-76
2022/08/12 05:43:15;;;;;;;;;24.33;21.67;;;;;24.37;64.48;100021.00;5024689;28;45520;-76
2022/08/12 05:45:41;;;;;;;;;25.67;22.00;;;;;24.45;64.10;100023.41;5036195;28;45385;-76
2022/08/12 05:48:06;;;;;;;;;21.33;20.33;;;;;24.50;63.81;100021.44;5019439;28;46229;-76
2022/08/12 05:50:34;;;;;;;;;21.67;20.67;;;;;24.60;63.41;100033.56;5016465;28;45470;-76
2022/08/12 05:53:00;;;;;;;;;22.33;20.33;;;;;24.18;63.71;99954.94;5016462;28;45427;-76
2022/08/12 05:55:26;;;;;;;;;23.00;20.67;;;;;24.67;63.16;100034.22;5016726;28;45573;-76
2022/08/12 05:57:54;;;;;;;;;21.33;21.33;;;;;24.72;63.24;100038.47;5016356;28;46018;-76
2022/08/12 06:00:24;;;;;;;;;23.33;23.00;;;;;24.69;64.14;100037.69;5031904;28;45395;-76
2022/08/12 06:02:55;;;;;;;;;24.00;24.00;;;;;23.87;63.79;99904.44;5016453;28;45406;-76
2022/08/12 06:05:21;;;;;;;;;26.25;25.25;;;;;24.69;64.14;100049.28;5018486;28;45657;-75
2022/08/12 06:07:48;;;;;;;;;23.75;23.25;;;;;24.68;63.12;100042.16;5033553;28;46188;-76
2022/08/12 06:10:15;;;;;;;;;21.67;20.33;;;;;24.74;63.30;100057.97;5015837;28;45379;-76
2022/08/12 06:12:41;;;;;;;;;25.00;22.67;;;;;24.76;62.95;100053.44;5016519;28;45177;-76
2022/08/12 06:15:07;;;;;;;;;29.33;26.67;;;;;24.79;63.05;100055.16;5029904;28;45546;-76
2022/08/12 06:17:33;;;;;;;;;33.50;29.25;;;;;24.76;63.28;100032.06;5018332;28;46195;-76
2022/08/12 06:19:58;;;;;;;;;31.33;27.00;;;;;24.90;63.58;100057.41;5021141;28;45554;-76
2022/08/12 06:22:25;;;;;;;;;30.67;28.33;;;;;24.88;63.77;100046.78;5026593;28;45434;-76
2022/08/12 06:24:54;;;;;;;;;29.00;25.67;;;;;24.88;63.67;100049.44;5016582;28;45386;-76
2022/08/12 06:27:20;;;;;;;;;26.33;24.67;;;;;24.86;64.28;100045.97;5018353;28;45461;-76
2022/08/12 06:29:46;;;;;;;;;28.75;26.75;;;;;24.95;63.98;100055.47;5024787;28;45494;-76
2022/08/12 06:32:14;;;;;;;;;28.67;26.00;;;;;24.79;63.05;100023.97;5039214;28;45459;-76
2022/08/12 06:34:39;;;;;;;;;26.67;22.67;;;;;25.03;63.66;100061.38;5025892;28;45480;-76
2022/08/12 06:37:06;;;;;;;;;25.33;22.67;;;;;24.42;63.21;99957.66;5019206;28;45502;-77
2022/08/12 06:39:31;;;;;;;;;27.33;24.33;;;;;25.07;63.59;100059.44;5019945;28;45450;-76
2022/08/12 06:44:41;;;;;;;;;28.00;25.67;;;;;25.06;63.76;100047.88;5019482;28;45326;-77
2022/08/12 06:47:07;;;;;;;;;24.50;24.50;;;;;25.28;63.99;100068.50;5034702;28;45530;-77
2022/08/12 06:49:35;;;;;;;;;33.25;27.00;;;;;25.08;64.18;100023.78;5023769;28;45536;-77
2022/08/12 06:52:03;;;;;;;;;29.25;28.00;;;;;25.47;64.07;100072.19;5030560;28;45470;-77
2022/08/12 06:54:29;;;;;;;;;33.25;29.00;;;;;25.18;63.87;100004.66;5039204;28;45552;-77
2022/08/12 06:56:56;;;;;;;;;36.25;31.00;;;;;25.56;63.79;100058.44;5038917;28;46087;-77
2022/08/12 06:59:22;;;;;;;;;31.75;28.00;;;;;25.58;63.35;100039.66;5038658;28;45425;-77
2022/08/12 07:01:48;;;;;;;;;32.75;30.50;;;;;25.57;62.97;100022.75;5036692;28;45538;-77
2022/08/12 07:04:15;;;;;;;;;30.00;27.25;;;;;25.49;62.71;99979.41;5024310;28;45532;-77
2022/08/12 07:06:41;;;;;;;;;28.67;26.33;;;;;26.15;61.98;100073.03;5018849;28;46173;-77
2022/08/12 07:09:07;;;;;;;;;34.00;30.67;;;;;25.91;62.34;100034.78;5024660;28;45473;-77
2022/08/12 07:11:33;;;;;;;;;34.00;32.00;;;;;26.28;62.31;100078.75;5027869;28;45610;-77
2022/08/12 07:14:03;;;;;;;;;28.00;27.00;;;;;26.41;61.62;100079.09;5019520;28;45553;-77
2022/08/12 07:16:50;;;;;;;;;31.00;28.00;;;;;26.53;61.20;100078.53;5036851;28;46253;-77
2022/08/12 07:19:15;;;;;;;;;33.00;30.00;;;;;26.66;61.54;100086.97;5037988;28;45596;-77
2022/08/12 07:21:41;;;;;;;;;31.50;30.25;;;;;26.74;61.18;100074.09;5038256;28;45562;-77
2022/08/12 07:24:06;;;;;;;;;36.67;32.67;;;;;26.89;61.17;100085.06;5022024;28;45366;-77
2022/08/12 07:26:32;;;;;;;;;35.33;30.67;;;;;26.93;61.18;100079.47;5037942;28;45405;-77
2022/08/12 07:28:58;;;;;;;;;36.00;32.25;;;;;26.79;60.93;100047.09;5038372;28;45204;-77
2022/08/12 07:31:23;;;;;;;;;36.25;32.50;;;;;26.76;60.65;100015.09;5038079;28;45354;-77
2022/08/12 07:33:49;;;;;;;;;44.75;36.25;;;;;27.32;60.18;100086.69;5021983;28;45505;-76
2022/08/12 07:36:15;;;;;;;;;50.00;40.75;;;;;27.39;60.41;100081.88;5033739;28;45365;-77
2022/08/12 07:38:46;;;;;;;;;40.75;35.25;;;;;27.41;60.21;100082.69;5018046;28;45349;-77
2022/08/12 07:41:15;;;;;;;;;36.50;32.50;;;;;27.57;59.73;100088.19;5031282;28;45430;-77
2022/08/12 07:43:50;;;;;;;;;36.50;31.25;;;;;27.66;59.34;100093.13;5036710;28;45457;-76
2022/08/12 07:46:19;;;;;;;;;39.25;34.25;;;;;27.72;59.46;100091.97;5037135;28;46041;-77
2022/08/12 07:48:49;;;;;;;;;34.00;32.00;;;;;27.57;59.32;100056.00;5025526;28;45525;-77
2022/08/12 07:51:16;;;;;;;;;43.75;36.25;;;;;27.61;59.41;100062.09;5032166;28;45481;-76
2022/08/12 07:53:42;;;;;;;;;39.00;33.50;;;;;27.81;58.31;100080.75;5020221;28;45485;-76
2022/08/12 07:56:09;;;;;;;;;36.25;32.00;;;;;28.07;58.23;100084.91;5036213;28;46089;-80
2022/08/12 07:58:38;;;;;;;;;41.00;35.50;;;;;27.69;57.40;99999.03;5025006;28;45445;-78
2022/08/12 08:01:14;;;;;;;;;41.75;33.50;;;;;28.08;57.31;100064.28;5022785;28;45540;-78
2022/08/12 08:04:54;;;;;;;;;40.25;35.25;;;;;27.14;57.04;99876.56;5021921;28;45716;-80
2022/08/12 08:06:30;;;;;;;;;40.00;34.50;;;;;26.04;56.34;99664.91;5031727;28;46137;-78
2022/08/12 08:09:02;;;;;;;;;42.00;35.75;;;;;28.58;55.64;100062.66;5020444;28;45394;-80
2022/08/12 08:14:13;;;;;;;;;38.00;33.75;;;;;29.17;53.52;99961.78;5025297;28;45569;-79
2022/08/12 08:16:40;;;;;;;;;39.50;35.25;;;;;29.43;52.83;99925.31;5063656;28;48029;-79
2022/08/12 08:19:19;;;;;;;;;39.75;34.50;;;;;29.14;51.61;99825.63;5035807;28;45411;-82
2022/08/12 08:21:45;;;;;;;;;40.75;35.00;;;;;31.10;50.48;100084.13;5027794;28;45528;-82
2022/08/12 08:24:14;;;;;;;;;37.00;33.00;;;;;31.55;49.45;100064.25;5029675;28;45406;-81
2022/08/12 08:26:41;;;;;;;;;39.00;34.75;;;;;32.16;47.73;100068.31;5020101;28;45678;-80
2022/08/12 08:29:07;;;;;;;;;42.00;35.50;;;;;32.65;47.01;100045.13;5031692;28;45497;-82
2022/08/12 08:31:34;;;;;;;;;38.75;33.00;;;;;33.41;45.65;100087.53;5026319;28;45446;-78
2022/08/12 08:34:00;;;;;;;;;37.75;34.00;;;;;33.27;41.85;99896.34;5069981;28;45514;-78
2022/08/12 08:36:26;;;;;;;;;40.25;34.50;;;;;34.85;40.26;99828.00;5036989;28;46298;-80
2022/08/12 08:38:52;;;;;;;;;35.75;32.50;;;;;37.34;38.60;100083.94;5035394;28;45707;-81
2022/08/12 08:44:01;;;;;;;;;38.75;34.75;;;;;34.80;37.83;99833.81;5018361;28;45558;-79
2022/08/12 08:46:27;;;;;;;;;39.50;34.75;;;;;36.75;36.84;99902.28;5029180;28;45504;-79
2022/08/12 08:48:54;;;;;;;;;42.25;36.25;;;;;39.22;31.72;99981.75;5018114;28;45445;-79
2022/08/12 08:51:22;;;;;;;;;44.00;36.50;;;;;41.30;29.98;100100.00;5015197;28;45343;-78
2022/08/12 08:53:48;;;;;;;;;36.25;33.00;;;;;41.80;30.50;99969.41;5025040;28;45573;-81
2022/08/12 08:56:14;;;;;;;;;37.75;33.25;;;;;42.92;27.21;100094.13;5022762;28;45437;-83
2022/08/12 08:58:39;;;;;;;;;39.50;34.50;;;;;43.24;27.75;100093.16;5016246;28;45430;-79
2022/08/12 09:01:05;;;;;;;;;34.50;31.25;;;;;44.01;28.16;100097.97;5016666;28;45529;-80
2022/08/12 09:03:32;;;;;;;;;35.00;32.00;;;;;44.93;27.28;100099.81;5024991;28;45440;-84
2022/08/12 09:06:00;;;;;;;;;34.25;31.25;;;;;45.10;26.59;100096.84;5028732;28;45464;-79
2022/08/12 09:08:26;;;;;;;;;31.75;30.50;;;;;45.53;25.59;100100.63;5029384;28;45382;-79
2022/08/12 09:10:52;;;;;;;;;32.00;30.25;;;;;45.84;24.77;100100.41;5018577;28;45456;-80
2022/08/12 09:13:27;;;;;;;;;34.00;30.25;;;;;45.45;24.95;100062.97;5015938;28;45449;-80
2022/08/12 09:15:53;;;;;;;;;33.00;30.75;;;;;45.29;25.28;99996.16;5025188;28;45494;-79
2022/08/12 09:18:19;;;;;;;;;36.25;32.75;;;;;45.76;23.71;100012.19;5015717;28;45281;-77
2022/08/12 09:20:49;;;;;;;;;34.75;31.75;;;;;45.37;24.05;100098.94;5016140;28;45441;-79
2022/08/12 09:23:16;;;;;;;;;33.75;31.25;;;;;44.96;25.07;100032.41;5016824;28;45558;-79
2022/08/12 09:25:47;;;;;;;;;33.75;31.25;;;;;44.76;24.31;100029.34;5016316;28;45497;-79
2022/08/12 09:28:13;;;;;;;;;33.25;31.00;;;;;44.74;24.77;100065.34;5015212;28;45428;-79
2022/08/12 09:30:48;;;;;;;;;34.00;31.75;;;;;43.85;25.13;99953.09;5016712;28;45592;-80
2022/08/12 09:33:13;;;;;;;;;31.75;29.50;;;;;43.24;25.18;99884.25;5048474;28;45404;-80
2022/08/12 09:35:43;;;;;;;;;33.75;31.00;;;;;43.40;25.27;99915.44;5016679;28;46996;-79
2022/08/12 09:38:14;;;;;;;;;26.67;26.00;;;;;44.99;25.37;100085.25;5016197;28;45397;-78
2022/08/12 09:40:39;;;;;;;;;32.50;29.00;;;;;45.59;25.77;100096.25;5016645;28;45520;-77
2022/08/12 09:45:49;;;;;;;;;34.00;32.50;;;;;43.83;25.61;99891.91;5019249;28;45800;-79
2022/08/12 09:48:16;;;;;;;;;32.25;30.75;;;;;45.20;24.95;100073.44;5014680;28;45466;-79
2022/08/12 09:50:48;;;;;;;;;33.50;31.00;;;;;45.32;24.40;100071.09;5021451;28;45380;-79
2022/08/12 09:53:17;;;;;;;;;31.75;30.25;;;;;45.61;23.73;100069.31;5035689;28;45406;-80
2022/08/12 09:55:46;;;;;;;;;35.00;31.75;;;;;45.14;24.24;99927.25;5035430;28;46511;-79
2022/08/12 09:58:15;;;;;;;;;30.50;30.00;;;;;45.76;24.16;100016.88;5035486;28;45429;-80
2022/08/12 10:00:42;;;;;;;;;36.25;33.00;;;;;45.42;23.71;100021.97;5035352;28;45342;-78
2022/08/12 10:03:09;;;;;;;;;34.00;31.25;;;;;45.89;23.89;100079.63;5036058;28;45433;-79
2022/08/12 10:05:42;;;;;;;;;34.25;31.25;;;;;46.29;24.04;100094.69;5035083;28;45261;-79
2022/08/12 10:08:12;;;;;;;;;33.50;31.75;;;;;46.43;23.80;100055.13;5035850;28;45351;-79
2022/08/12 10:13:41;;;;;;;;;33.50;30.25;;;;;46.58;23.35;100051.38;5034293;28;45253;-80
2022/08/12 10:16:16;;;;;;;;;30.75;29.50;;;;;46.92;23.05;100081.00;5034428;28;45505;-79
2022/08/12 10:18:44;;;;;;;;;33.25;31.25;;;;;46.30;23.53;100076.22;5035621;28;45432;-80
2022/08/12 10:21:13;;;;;;;;;34.00;30.75;;;;;46.43;23.38;100055.13;5035692;28;45404;-80
2022/08/12 10:23:42;;;;;;;;;33.00;31.00;;;;;46.44;23.13;100033.84;5035517;28;45437;-79
2022/08/12 10:31:38;;;;;;;;;31.50;30.50;;;;;46.43;22.78;100057.88;5029710;28;45444;-76
2022/08/12 10:34:08;;;;;;;;;33.00;31.25;;;;;46.15;22.72;100081.84;5030475;28;45378;-78
2022/08/12 10:36:38;;;;;;;;;31.75;30.25;;;;;46.29;22.81;100080.88;5033019;28;45431;-77
2022/08/12 10:39:06;;;;;;;;;29.00;28.75;;;;;45.82;23.78;100076.78;5030784;28;45442;-78
2022/08/12 10:44:17;;;;;;;;;32.25;30.75;;;;;45.68;23.71;100066.66;5034535;28;45404;-78
2022/08/12 10:46:44;;;;;;;;;34.00;30.50;;;;;44.76;24.16;100005.41;5034359;28;46578;-79
2022/08/12 10:49:11;;;;;;;;;32.25;30.50;;;;;44.58;24.14;100068.28;5050136;28;45453;-79
2022/08/12 10:51:38;;;;;;;;;35.00;31.25;;;;;44.48;24.86;100046.50;5014936;28;45816;-78
2022/08/12 10:54:03;;;;;;;;;33.50;29.75;;;;;43.85;25.42;100068.66;5015449;28;45906;-77
2022/08/12 10:56:33;;;;;;;;;37.25;31.50;;;;;43.69;25.60;100055.88;5014620;28;46024;-78
2022/08/12 10:58:59;;;;;;;;;30.00;28.75;;;;;43.82;25.47;100055.25;5015005;28;46038;-79
2022/08/12 11:01:26;;;;;;;;;29.50;29.00;;;;;43.58;25.92;100022.41;5014713;28;45351;-78
2022/08/12 11:03:52;;;;;;;;;31.75;30.00;;;;;43.42;25.77;100048.09;5015079;28;45522;-79
2022/08/12 11:06:20;;;;;;;;;32.75;31.00;;;;;42.85;26.58;100036.22;5014769;28;45636;-77
2022/08/12 11:08:46;;;;;;;;;31.00;30.00;;;;;42.69;26.93;100047.28;5015177;28;45450;-77
2022/08/12 11:11:16;;;;;;;;;27.25;27.25;;;;;42.28;27.25;100034.44;5014817;28;45470;-78
2022/08/12 11:13:43;;;;;;;;;31.25;29.75;;;;;41.60;28.25;100002.63;5016861;28;45466;-78
2022/08/12 11:16:09;;;;;;;;;30.00;28.75;;;;;41.32;29.35;100038.50;5027683;28;45511;-77
2022/08/12 11:18:35;;;;;;;;;28.75;28.50;;;;;40.62;29.58;100038.63;5038321;28;45777;-78
2022/08/12 11:21:00;;;;;;;;;33.50;31.25;;;;;40.28;30.30;100022.97;5021782;28;45648;-77
2022/08/12 11:23:26;;;;;;;;;32.50;30.75;;;;;40.00;30.34;100024.97;5021036;28;45518;-77
2022/08/12 11:25:51;;;;;;;;;31.75;29.50;;;;;39.51;31.44;100018.97;5029807;28;45612;-77
2022/08/12 11:28:18;;;;;;;;;28.00;27.00;;;;;39.26;31.71;100015.09;5018213;28;45568;-77
2022/08/12 11:30:44;;;;;;;;;29.25;28.75;;;;;39.04;32.01;100013.59;5018946;28;45430;-77
2022/08/12 11:33:11;;;;;;;;;29.50;29.25;;;;;38.74;32.73;99985.56;5033842;28;45675;-77
2022/08/12 11:35:37;;;;;;;;;32.75;31.25;;;;;38.50;33.56;100011.47;5018174;28;46065;-77
2022/08/12 11:38:03;;;;;;;;;26.00;26.00;;;;;38.13;33.71;99992.31;5017704;28;45444;-77
2022/08/12 11:40:29;;;;;;;;;35.50;32.75;;;;;37.90;33.83;99999.88;5018354;28;46650;-77
2022/08/12 11:42:56;;;;;;;;;31.75;29.75;;;;;37.40;34.98;100001.66;5021987;28;45710;-77
2022/08/12 11:45:22;;;;;;;;;35.50;32.25;;;;;36.82;36.40;99987.84;5017133;28;46113;-77
2022/08/12 11:47:48;;;;;;;;;30.25;28.25;;;;;36.13;36.84;99940.34;5028022;28;45311;-77
2022/08/12 11:50:13;;;;;;;;;33.25;30.75;;;;;36.47;36.55;99999.97;5037013;28;45298;-77
2022/08/12 11:52:39;;;;;;;;;32.00;30.00;;;;;36.54;36.37;99976.66;5034351;28;45593;-76
2022/08/12 11:55:05;;;;;;;;;32.75;30.00;;;;;36.73;35.99;99980.50;5022916;28;45512;-76
2022/08/12 11:57:30;;;;;;;;;34.75;32.00;;;;;36.87;36.35;99993.75;5036196;28;45423;-76
2022/08/12 11:59:56;;;;;;;;;32.75;30.75;;;;;36.79;36.18;99983.56;5021974;28;45485;-77
2022/08/12 12:02:22;;;;;;;;;34.00;30.75;;;;;36.52;36.58;99956.88;5053684;28;45983;-77
2022/08/12 12:04:49;;;;;;;;;35.00;32.00;;;;;36.34;37.11;99974.84;5035111;28;45527;-76
2022/08/12 12:07:15;;;;;;;;;36.00;31.50;;;;;36.01;37.58;99928.66;5023227;28;45311;-77
2022/08/12 12:09:41;;;;;;;;;32.25;30.00;;;;;36.14;37.44;99971.97;5017291;28;45413;-77
2022/08/12 12:12:06;;;;;;;;;32.50;30.00;;;;;35.99;37.35;99949.69;5029821;28;45361;-77
2022/08/12 12:14:32;;;;;;;;;34.25;32.25;;;;;36.21;37.54;99972.31;5034713;28;46204;-77
2022/08/12 12:16:58;;;;;;;;;34.25;31.00;;;;;36.23;37.46;99954.00;5031008;28;45866;-77
2022/08/12 12:19:23;;;;;;;;;32.00;30.00;;;;;36.38;36.98;99943.66;5025476;28;45644;-78
2022/08/12 12:21:49;;;;;;;;;34.00;32.00;;;;;36.25;37.85;99976.47;5036815;28;45430;-78
2022/08/12 12:24:18;;;;;;;;;34.50;32.25;;;;;36.22;37.58;99965.88;5035844;28;45297;-77
2022/08/12 12:26:44;;;;;;;;;30.67;30.00;;;;;36.27;37.31;99952.75;5017683;28;45362;-78
2022/08/12 12:29:09;;;;;;;;;28.50;27.75;;;;;36.01;37.65;99916.91;5016799;28;45525;-77
2022/08/12 12:31:35;;;;;;;;;28.25;28.25;;;;;36.05;37.85;99921.09;5029063;28;45346;-77
2022/08/12 12:34:00;;;;;;;;;30.50;29.75;;;;;36.32;37.98;99952.34;5021153;28;45494;-77
2022/08/12 12:36:26;;;;;;;;;31.50;30.25;;;;;36.31;37.43;99943.34;5020109;28;45354;-77
2022/08/12 12:38:51;;;;;;;;;29.67;29.33;;;;;36.31;37.70;99958.78;5029715;28;45521;-78
2022/08/12 12:41:17;;;;;;;;;31.00;30.25;;;;;36.01;37.98;99930.50;5017912;28;45671;-77
2022/08/12 12:43:43;;;;;;;;;33.75;30.00;;;;;35.96;38.29;99922.75;5017107;28;45287;-77
2022/08/12 12:46:08;;;;;;;;;30.00;29.00;;;;;35.98;38.43;99933.50;5016934;28;45324;-77
2022/08/12 12:48:34;;;;;;;;;30.50;29.00;;;;;35.71;38.76;99932.16;5017474;28;45423;-77
2022/08/12 12:51:15;;;;;;;;;30.25;28.25;;;;;35.73;38.67;99913.84;5022099;28;45626;-77
2022/08/12 12:53:44;;;;;;;;;33.00;30.25;;;;;35.90;39.12;99925.16;5025567;28;45501;-78
2022/08/12 12:56:15;;;;;;;;;34.50;31.00;;;;;35.85;38.44;99922.81;5016371;28;45557;-78
2022/08/12 12:58:41;;;;;;;;;32.75;30.25;;;;;35.90;38.60;99923.28;5035239;28;45391;-77
2022/08/12 13:01:08;;;;;;;;;33.25;31.50;;;;;35.98;38.54;99919.91;5028546;28;45465;-77
2022/08/12 13:03:34;;;;;;;;;33.75;31.00;;;;;35.92;38.20;99893.28;5016593;28;46193;-77
2022/08/12 13:06:01;;;;;;;;;32.75;30.00;;;;;36.12;38.29;99918.72;5016614;28;45648;-77
2022/08/12 13:08:29;;;;;;;;;26.33;25.67;;;;;36.13;38.38;99915.88;5020257;28;45525;-77
2022/08/12 13:11:02;;;;;;;;;28.75;27.75;;;;;35.96;38.43;99876.56;5028395;28;45437;-77